Artvin — 9HA2782 — position and weather

sailwx.info

Track history (hours):
 
Tides and Currents Weather Stations Pressure Air Temp Water Temp Dewpoint Dewpoint Depression Visibility Wind Speed Wind Dir Waves Ship Positions

Artvin

Last reported at 2017-Mar-22 07:07 UTC. Time now 2017-Mar-29 09:24 UTC.
Position N 49°46' W 003°33'.

Length 229 m; draft 13.9 m.

Type: Cargo ship. MMSI: 215678000.

Date/timePositionNaut miles runAvg speedWind from/ knotsBaromVisibWave heightAir tempDewpointWater temp
2017-Mar-22 07:07N 49°46' W 003°33'5 8.4
2017-Mar-22 06:31N 49°49' W 003°26'8 8.2
2017-Mar-22 05:33N 49°53' W 003°15'7 7.0
2017-Mar-22 04:33N 49°56' W 003°06'6 5.9
2017-Mar-22 03:33N 49°59' W 002°58'5 5.2
2017-Mar-22 02:33N 49°60' W 002°50'6 6.0
2017-Mar-22 01:30N 50°02' W 002°40'30 7.5
2017-Mar-21 21:28N 50°10' W 001°55'9 9.6
2017-Mar-21 20:33N 50°12' W 001°42'10 9.8
2017-Mar-21 19:31N 50°15' W 001°27'9 9.8
2017-Mar-21 18:34N 50°18' W 001°12'29 8.2
2017-Mar-21 15:04N 50°26' W 000°29'4 7.4
2017-Mar-21 14:33N 50°27' W 000°24'8 7.5
2017-Mar-21 13:30N 50°29' W 000°11'7 7.9
2017-Mar-21 12:33N 50°31' W 000°00'8 8.3
2017-Mar-21 11:33N 50°33' E 000°12'9 8.9
2017-Mar-21 10:33N 50°36' E 000°26'9 9.3
2017-Mar-21 09:33N 50°40' E 000°39'10 9.5
2017-Mar-21 08:33N 50°45' E 000°51'9 9.0
2017-Mar-21 07:31N 50°51' E 001°03'8 8.5
2017-Mar-21 06:33N 50°56' E 001°13'8 7.8
2017-Mar-21 05:33N 51°01' E 001°22'8 7.5
2017-Mar-21 04:33N 51°06' E 001°31'8 7.8
2017-Mar-21 03:33N 51°11' E 001°41'9 8.8
2017-Mar-21 02:33N 51°18' E 001°50'10 9.8
2017-Mar-21 01:33N 51°26' E 001°58'1010.0
2017-Mar-21 00:33N 51°34' E 002°08'10 9.9
2017-Mar-20 23:33N 51°42' E 002°18'11 9.3
2017-Mar-20 22:24N 51°50' E 002°29'39 7.4
2017-Mar-20 17:11N 52°26' E 002°50'336 8.5
2017-Mar-19 01:31N 57°10' E 008°01'9 9.0
2017-Mar-19 00:32N 57°16' E 008°13'9 9.0
2017-Mar-18 23:33N 57°23' E 008°25'9 8.8
2017-Mar-18 22:33N 57°28' E 008°37'9 8.7
2017-Mar-18 21:32N 57°34' E 008°49'8 8.4
2017-Mar-18 20:32N 57°40' E 009°00'8 8.0
2017-Mar-18 19:33N 57°42' E 009°15'9 8.4
2017-Mar-18 18:32N 57°44' E 009°30'9 8.6
2017-Mar-18 17:32N 57°46' E 009°46'18 8.5
2017-Mar-18 15:26N 57°48' E 010°19'8 8.5
2017-Mar-18 14:33N 57°48' E 010°33'8 8.1
2017-Mar-18 13:32N 57°47' E 010°48'9 9.2
2017-Mar-18 12:32N 57°40' E 011°01'9 8.9
2017-Mar-18 11:33N 57°34' E 011°13'9 9.0
2017-Mar-18 10:33N 57°28' E 011°25'8 8.4
2017-Mar-18 09:33N 57°20' E 011°31'9 8.7
2017-Mar-18 08:33N 57°12' E 011°37'9 9.0
2017-Mar-18 07:33N 57°04' E 011°43'52 7.3
2017-Mar-18 00:29N 56°16' E 011°06'61 8.8
2017-Mar-17 17:32N 55°15' E 011°06'8 8.2
2017-Mar-17 16:33N 55°08' E 010°59'9 8.8
2017-Mar-17 15:33N 54°59' E 010°58'8 8.3
2017-Mar-17 14:33N 54°52' E 010°50'9 8.9
2017-Mar-17 13:33N 54°43' E 010°47'9 8.8
2017-Mar-17 12:33N 54°37' E 010°57'9 9.2
2017-Mar-17 11:33N 54°35' E 011°13'10 9.7
2017-Mar-17 10:33N 54°31' E 011°28'1010.0
2017-Mar-17 09:33N 54°27' E 011°44'10 9.9
2017-Mar-17 08:33N 54°26' E 012°01'8 8.2
2017-Mar-17 07:33N 54°30' E 012°13'9 8.5
2017-Mar-17 06:33N 54°38' E 012°20'5 5.4
2017-Mar-17 05:33N 54°41' E 012°28'52 8.6
2017-Mar-16 23:32N 55°01' E 013°51'9 9.1
2017-Mar-16 22:32N 55°05' E 014°05'9 9.1
2017-Mar-16 21:33N 55°12' E 014°15'9 9.2
2017-Mar-16 20:33N 55°19' E 014°26'9 9.0
2017-Mar-16 19:33N 55°26' E 014°36'9 9.1
2017-Mar-16 18:33N 55°31' E 014°50'9 8.9
2017-Mar-16 17:33N 55°35' E 015°03'9 9.0
2017-Mar-16 16:33N 55°38' E 015°18'9 9.1
2017-Mar-16 15:33N 55°40' E 015°34'9 9.4
2017-Mar-16 14:33N 55°43' E 015°50'10 9.6
2017-Mar-16 13:33N 55°45' E 016°06'10 9.5
2017-Mar-16 12:33N 55°47' E 016°23'9 9.4
2017-Mar-16 11:33N 55°50' E 016°39'9 9.4
2017-Mar-16 10:33N 55°52' E 016°55'10 9.4
2017-Mar-16 09:30N 55°54' E 017°13'  
Track history (hours):
 
Tides and Currents Weather Stations Pressure Air Temp Water Temp Dewpoint Dewpoint Depression Visibility Wind Speed Wind Dir Waves Ship Positions

Artvin

Last reported at 2017-Mar-22 07:07 UTC. Time now 2017-Mar-29 09:24 UTC.
Position N 49°46' W 003°33'.

Length 229 m; draft 13.9 m.

Type: Cargo ship. MMSI: 215678000.

Date/timePositionNaut miles runAvg speedWind from/ knotsBaromVisibWave heightAir tempDewpointWater temp
2017-Mar-22 07:07N 49°46' W 003°33'5 8.4
2017-Mar-22 06:31N 49°49' W 003°26'8 8.2
2017-Mar-22 05:33N 49°53' W 003°15'7 7.0
2017-Mar-22 04:33N 49°56' W 003°06'6 5.9
2017-Mar-22 03:33N 49°59' W 002°58'5 5.2
2017-Mar-22 02:33N 49°60' W 002°50'6 6.0
2017-Mar-22 01:30N 50°02' W 002°40'30 7.5
2017-Mar-21 21:28N 50°10' W 001°55'9 9.6
2017-Mar-21 20:33N 50°12' W 001°42'10 9.8
2017-Mar-21 19:31N 50°15' W 001°27'9 9.8
2017-Mar-21 18:34N 50°18' W 001°12'29 8.2
2017-Mar-21 15:04N 50°26' W 000°29'4 7.4
2017-Mar-21 14:33N 50°27' W 000°24'8 7.5
2017-Mar-21 13:30N 50°29' W 000°11'7 7.9
2017-Mar-21 12:33N 50°31' W 000°00'8 8.3
2017-Mar-21 11:33N 50°33' E 000°12'9 8.9
2017-Mar-21 10:33N 50°36' E 000°26'9 9.3
2017-Mar-21 09:33N 50°40' E 000°39'10 9.5
2017-Mar-21 08:33N 50°45' E 000°51'9 9.0
2017-Mar-21 07:31N 50°51' E 001°03'8 8.5
2017-Mar-21 06:33N 50°56' E 001°13'8 7.8
2017-Mar-21 05:33N 51°01' E 001°22'8 7.5
2017-Mar-21 04:33N 51°06' E 001°31'8 7.8
2017-Mar-21 03:33N 51°11' E 001°41'9 8.8
2017-Mar-21 02:33N 51°18' E 001°50'10 9.8
2017-Mar-21 01:33N 51°26' E 001°58'1010.0
2017-Mar-21 00:33N 51°34' E 002°08'10 9.9
2017-Mar-20 23:33N 51°42' E 002°18'11 9.3
2017-Mar-20 22:24N 51°50' E 002°29'39 7.4
2017-Mar-20 17:11N 52°26' E 002°50'336 8.5
2017-Mar-19 01:31N 57°10' E 008°01'9 9.0
2017-Mar-19 00:32N 57°16' E 008°13'9 9.0
2017-Mar-18 23:33N 57°23' E 008°25'9 8.8
2017-Mar-18 22:33N 57°28' E 008°37'9 8.7
2017-Mar-18 21:32N 57°34' E 008°49'8 8.4
2017-Mar-18 20:32N 57°40' E 009°00'8 8.0
2017-Mar-18 19:33N 57°42' E 009°15'9 8.4
2017-Mar-18 18:32N 57°44' E 009°30'9 8.6
2017-Mar-18 17:32N 57°46' E 009°46'18 8.5
2017-Mar-18 15:26N 57°48' E 010°19'8 8.5
2017-Mar-18 14:33N 57°48' E 010°33'8 8.1
2017-Mar-18 13:32N 57°47' E 010°48'9 9.2
2017-Mar-18 12:32N 57°40' E 011°01'9 8.9
2017-Mar-18 11:33N 57°34' E 011°13'9 9.0
2017-Mar-18 10:33N 57°28' E 011°25'8 8.4
2017-Mar-18 09:33N 57°20' E 011°31'9 8.7
2017-Mar-18 08:33N 57°12' E 011°37'9 9.0
2017-Mar-18 07:33N 57°04' E 011°43'52 7.3
2017-Mar-18 00:29N 56°16' E 011°06'61 8.8
2017-Mar-17 17:32N 55°15' E 011°06'8 8.2
2017-Mar-17 16:33N 55°08' E 010°59'9 8.8
2017-Mar-17 15:33N 54°59' E 010°58'8 8.3
2017-Mar-17 14:33N 54°52' E 010°50'9 8.9
2017-Mar-17 13:33N 54°43' E 010°47'9 8.8
2017-Mar-17 12:33N 54°37' E 010°57'9 9.2
2017-Mar-17 11:33N 54°35' E 011°13'10 9.7
2017-Mar-17 10:33N 54°31' E 011°28'1010.0
2017-Mar-17 09:33N 54°27' E 011°44'10 9.9
2017-Mar-17 08:33N 54°26' E 012°01'8 8.2
2017-Mar-17 07:33N 54°30' E 012°13'9 8.5
2017-Mar-17 06:33N 54°38' E 012°20'5 5.4
2017-Mar-17 05:33N 54°41' E 012°28'52 8.6
2017-Mar-16 23:32N 55°01' E 013°51'9 9.1
2017-Mar-16 22:32N 55°05' E 014°05'9 9.1
2017-Mar-16 21:33N 55°12' E 014°15'9 9.2
2017-Mar-16 20:33N 55°19' E 014°26'9 9.0
2017-Mar-16 19:33N 55°26' E 014°36'9 9.1
2017-Mar-16 18:33N 55°31' E 014°50'9 8.9
2017-Mar-16 17:33N 55°35' E 015°03'9 9.0
2017-Mar-16 16:33N 55°38' E 015°18'9 9.1
2017-Mar-16 15:33N 55°40' E 015°34'9 9.4
2017-Mar-16 14:33N 55°43' E 015°50'10 9.6
2017-Mar-16 13:33N 55°45' E 016°06'10 9.5
2017-Mar-16 12:33N 55°47' E 016°23'9 9.4
2017-Mar-16 11:33N 55°50' E 016°39'9 9.4
2017-Mar-16 10:33N 55°52' E 016°55'10 9.4
2017-Mar-16 09:30N 55°54' E 017°13'  

Dump ship's entire track history